Time;durP1;ratioP1;P1;durP2;ratioP2;P2;SDS_P1;SDS_P2;PMS_P1;PMS_P2;Temp;Humidity;BMP_temperature;BMP_pressure;BME280_temperature;BME280_humidity;BME280_pressure;Samples;Min_cycle;Max_cycle;Signal;HPM_P1;HPM_P2
2023/05/29 00:00:57;;;;;;;0.00;0.00;;;7.90;99.90;;;;;;5064721;28;20052;-76
2023/05/29 00:03:22;;;;;;;14.57;2.67;;;8.00;99.90;;;;;;5065449;28;20766;-76
2023/05/29 00:05:49;;;;;;;0.25;0.25;;;8.00;99.90;;;;;;5064392;28;20059;-77
2023/05/29 00:08:15;;;;;;;0.10;0.10;;;8.00;99.90;;;;;;5066641;28;20051;-76
2023/05/29 00:10:41;;;;;;;0.43;0.38;;;8.00;99.90;;;;;;5069361;28;20048;-76
2023/05/29 00:13:06;;;;;;;0.20;0.20;;;7.90;99.90;;;;;;5069496;28;20475;-76
2023/05/29 00:15:32;;;;;;;9.00;2.30;;;7.80;99.90;;;;;;5068946;28;20495;-76
2023/05/29 00:17:57;;;;;;;0.00;0.00;;;7.80;99.90;;;;;;5069482;28;20044;-76
2023/05/29 00:20:23;;;;;;;0.00;0.00;;;7.80;99.90;;;;;;5069003;28;20047;-76
2023/05/29 00:22:49;;;;;;;1.15;0.70;;;7.80;99.90;;;;;;5068334;28;20040;-76
2023/05/29 00:25:15;;;;;;;0.10;0.10;;;7.70;99.90;;;;;;5069220;28;20091;-76
2023/05/29 00:27:41;;;;;;;1.30;1.00;;;7.60;99.90;;;;;;5067959;28;20044;-77
2023/05/29 00:30:08;;;;;;;0.20;0.10;;;7.60;99.90;;;;;;5067846;28;20044;-76
2023/05/29 00:32:33;;;;;;;0.45;0.20;;;7.60;99.90;;;;;;5067949;28;20090;-77
2023/05/29 00:34:59;;;;;;;0.00;0.00;;;7.50;99.90;;;;;;5067964;28;20072;-77
2023/05/29 00:37:25;;;;;;;0.40;0.25;;;7.50;99.90;;;;;;5067965;28;20055;-76
2023/05/29 00:39:51;;;;;;;0.00;0.00;;;7.50;99.90;;;;;;5067834;28;20056;-76
2023/05/29 00:42:17;;;;;;;0.35;0.25;;;7.50;99.90;;;;;;5067545;28;20461;-76
2023/05/29 00:44:42;;;;;;;0.00;0.00;;;7.40;99.90;;;;;;5067383;28;20071;-76
2023/05/29 00:47:08;;;;;;;0.00;0.00;;;7.40;99.90;;;;;;5067487;28;20040;-77
2023/05/29 00:49:36;;;;;;;0.00;0.00;;;7.40;99.90;;;;;;5066210;28;20036;-77
2023/05/29 00:52:03;;;;;;;0.00;0.00;;;7.30;99.90;;;;;;5067947;28;20040;-76
2023/05/29 00:54:29;;;;;;;0.00;0.00;;;7.30;99.90;;;;;;5067407;28;20048;-77
2023/05/29 00:56:57;;;;;;;1.45;0.52;;;7.20;99.90;;;;;;5067933;28;20063;-76
2023/05/29 00:59:24;;;;;;;1.67;0.43;;;7.10;99.90;;;;;;5067507;28;20068;-75
2023/05/29 01:01:50;;;;;;;0.10;0.10;;;7.20;99.90;;;;;;5067184;28;20044;-76
2023/05/29 01:04:17;;;;;;;1.35;1.02;;;7.20;99.90;;;;;;5067565;28;20071;-75
2023/05/29 01:06:43;;;;;;;13.90;1.65;;;7.10;99.90;;;;;;5067722;28;20211;-76
2023/05/29 01:09:10;;;;;;;0.52;0.35;;;7.10;99.90;;;;;;5066872;28;20390;-76
2023/05/29 01:12:08;;;;;;;0.10;0.10;;;7.00;99.90;;;;;;5067414;28;20083;-75
2023/05/29 01:15:13;;;;;;;0.25;0.25;;;7.00;99.90;;;;;;5066945;28;20058;-76
2023/05/29 01:18:01;;;;;;;0.00;0.00;;;7.00;99.90;;;;;;5067024;28;20156;-76
2023/05/29 01:20:42;;;;;;;1.08;0.98;;;6.90;99.90;;;;;;5066333;28;20591;-76
2023/05/29 01:23:21;;;;;;;0.00;0.00;;;7.00;99.90;;;;;;5066964;28;20116;-76
2023/05/29 01:26:25;;;;;;;0.45;0.45;;;7.00;99.90;;;;;;5067263;28;20121;-76
2023/05/29 01:28:53;;;;;;;0.00;0.00;;;6.90;99.90;;;;;;5066620;28;20054;-76
2023/05/29 01:31:25;;;;;;;0.00;0.00;;;6.70;99.90;;;;;;5066975;28;20457;-76
2023/05/29 01:33:59;;;;;;;0.05;0.05;;;6.60;99.90;;;;;;5066682;28;20070;-76
2023/05/29 01:36:26;;;;;;;0.00;0.00;;;7.00;99.90;;;;;;5066718;28;20423;-76
2023/05/29 01:38:53;;;;;;;0.00;0.00;;;6.40;99.90;;;;;;5066332;28;20052;-76
2023/05/29 01:41:21;;;;;;;0.00;0.00;;;6.30;99.90;;;;;;5066577;28;20119;-76
2023/05/29 01:43:47;;;;;;;0.00;0.00;;;6.20;99.90;;;;;;5066810;28;20545;-76
2023/05/29 01:46:14;;;;;;;0.10;0.10;;;6.20;99.90;;;;;;5066571;28;20088;-76
2023/05/29 01:48:41;;;;;;;0.50;0.50;;;6.30;99.90;;;;;;5066666;28;20044;-76
2023/05/29 01:51:08;;;;;;;0.00;0.00;;;6.20;99.90;;;;;;5066263;28;20507;-76
2023/05/29 01:53:34;;;;;;;0.10;0.10;;;6.20;99.90;;;;;;5066271;28;20097;-76
2023/05/29 01:56:00;;;;;;;0.00;0.00;;;6.10;99.90;;;;;;5065408;28;20048;-76
2023/05/29 01:58:27;;;;;;;0.85;0.70;;;6.00;99.90;;;;;;5065516;28;20059;-76
2023/05/29 02:00:54;;;;;;;6.18;1.55;;;5.90;99.90;;;;;;5065767;28;20131;-76
2023/05/29 02:03:20;;;;;;;0.20;0.20;;;5.80;99.90;;;;;;5064667;28;20514;-76
2023/05/29 02:05:46;;;;;;;0.00;0.00;;;5.80;99.90;;;;;;5066245;28;20072;-76
2023/05/29 02:08:12;;;;;;;0.70;0.20;;;5.80;99.90;;;;;;5066392;28;20036;-76
2023/05/29 02:10:38;;;;;;;0.00;0.00;;;5.80;99.90;;;;;;5066298;28;20167;-76
2023/05/29 02:13:03;;;;;;;0.10;0.10;;;5.70;99.90;;;;;;5065766;28;20048;-76
2023/05/29 02:15:29;;;;;;;0.10;0.10;;;5.70;99.90;;;;;;5065763;28;20158;-75
2023/05/29 02:17:55;;;;;;;0.15;0.15;;;5.80;99.90;;;;;;5065857;28;20048;-76
2023/05/29 02:20:21;;;;;;;0.00;0.00;;;5.90;99.90;;;;;;5066057;28;20055;-76
2023/05/29 02:22:46;;;;;;;0.00;0.00;;;5.80;99.90;;;;;;5065735;28;20040;-75
2023/05/29 02:25:12;;;;;;;0.00;0.00;;;5.90;99.90;;;;;;5065686;28;20074;-76
2023/05/29 02:27:38;;;;;;;1.65;0.85;;;5.90;99.90;;;;;;5065533;28;20048;-76
2023/05/29 02:30:05;;;;;;;0.00;0.00;;;5.80;99.90;;;;;;5065640;28;20052;-76
2023/05/29 02:32:31;;;;;;;0.00;0.00;;;5.80;99.90;;;;;;5064751;28;20060;-77
2023/05/29 02:34:57;;;;;;;0.00;0.00;;;5.80;99.90;;;;;;5065684;28;20044;-75
2023/05/29 02:37:25;;;;;;;0.00;0.00;;;5.70;99.90;;;;;;5065927;28;20044;-75
2023/05/29 02:39:51;;;;;;;0.00;0.00;;;5.60;99.90;;;;;;5065261;28;20049;-76
2023/05/29 02:42:17;;;;;;;1.27;1.17;;;5.60;99.90;;;;;;5065941;28;20044;-76
2023/05/29 02:44:42;;;;;;;0.10;0.10;;;5.60;99.90;;;;;;5065615;28;20040;-76
2023/05/29 02:47:08;;;;;;;1.20;1.08;;;5.50;99.90;;;;;;5065257;28;20380;-77
2023/05/29 02:49:34;;;;;;;6.65;1.75;;;5.50;99.90;;;;;;5065390;28;20499;-76
2023/05/29 02:51:59;;;;;;;0.00;0.00;;;5.60;99.90;;;;;;5065482;28;20132;-76
2023/05/29 02:54:25;;;;;;;0.28;0.28;;;5.60;99.90;;;;;;5064980;28;20499;-76
2023/05/29 02:56:52;;;;;;;1.45;0.98;;;5.60;99.90;;;;;;5064951;28;20499;-76
2023/05/29 02:59:17;;;;;;;0.00;0.00;;;5.60;99.90;;;;;;5065063;28;20056;-76
2023/05/29 03:01:43;;;;;;;0.00;0.00;;;5.60;99.90;;;;;;5064795;28;20078;-76
2023/05/29 03:04:10;;;;;;;0.00;0.00;;;5.60;99.90;;;;;;5064747;28;20052;-76
2023/05/29 03:06:36;;;;;;;0.00;0.00;;;5.70;99.90;;;;;;5065100;28;20411;-76
2023/05/29 03:09:04;;;;;;;0.40;0.32;;;5.70;99.90;;;;;;5064636;28;20040;-76
2023/05/29 03:11:31;;;;;;;0.00;0.00;;;5.60;99.90;;;;;;5064931;28;20056;-77
2023/05/29 03:13:57;;;;;;;0.15;0.15;;;5.50;99.90;;;;;;5065173;28;20048;-76
2023/05/29 03:16:22;;;;;;;0.00;0.00;;;5.40;99.90;;;;;;5065062;28;20040;-76
2023/05/29 03:18:48;;;;;;;0.00;0.00;;;5.20;99.90;;;;;;5065198;28;20113;-77
2023/05/29 03:21:13;;;;;;;0.10;0.10;;;5.10;99.90;;;;;;5065048;28;20059;-77
2023/05/29 03:23:39;;;;;;;0.00;0.00;;;5.10;99.90;;;;;;5064716;28;20036;-77
2023/05/29 03:26:05;;;;;;;0.47;0.47;;;5.20;99.90;;;;;;5065233;28;20037;-76
2023/05/29 03:28:31;;;;;;;0.00;0.00;;;5.20;99.90;;;;;;5064723;28;20587;-76
2023/05/29 03:30:57;;;;;;;0.00;0.00;;;5.30;99.90;;;;;;5064870;28;20070;-76
2023/05/29 03:33:22;;;;;;;0.17;0.17;;;5.40;99.90;;;;;;5065035;28;20144;-77
2023/05/29 03:35:48;;;;;;;0.17;0.13;;;5.50;99.90;;;;;;5065087;28;20044;-77
2023/05/29 03:38:14;;;;;;;0.00;0.00;;;5.50;99.90;;;;;;5064720;28;20052;-76
2023/05/29 03:40:39;;;;;;;0.10;0.10;;;5.60;99.90;;;;;;5064961;28;20105;-77
2023/05/29 03:43:05;;;;;;;0.00;0.00;;;5.80;99.90;;;;;;5066848;28;20059;-77
2023/05/29 03:45:31;;;;;;;0.00;0.00;;;5.90;99.90;;;;;;5069062;28;20089;-76
2023/05/29 03:47:56;;;;;;;0.50;0.50;;;6.10;99.90;;;;;;5068510;28;20632;-76
2023/05/29 03:50:22;;;;;;;0.25;0.25;;;6.30;99.90;;;;;;5068480;28;20044;-77
2023/05/29 03:52:47;;;;;;;0.40;0.40;;;6.30;99.90;;;;;;5068627;28;20076;-77
2023/05/29 03:55:14;;;;;;;0.00;0.00;;;6.50;99.90;;;;;;5068639;28;20052;-77
2023/05/29 03:57:40;;;;;;;0.38;0.38;;;6.70;99.90;;;;;;5068964;28;20052;-77
2023/05/29 04:00:09;;;;;;;0.00;0.00;;;6.80;99.90;;;;;;5068431;28;20067;-77
2023/05/29 04:02:36;;;;;;;1.65;0.80;;;6.90;99.90;;;;;;5068088;28;20171;-76
2023/05/29 04:05:02;;;;;;;0.00;0.00;;;6.90;99.90;;;;;;5068438;28;20059;-77
2023/05/29 04:07:28;;;;;;;0.05;0.05;;;7.00;99.90;;;;;;5068102;28;20131;-77
2023/05/29 04:09:53;;;;;;;0.00;0.00;;;7.40;99.90;;;;;;5067738;28;20045;-77
2023/05/29 04:12:19;;;;;;;0.52;0.38;;;7.50;99.90;;;;;;5068455;28;20051;-77
2023/05/29 04:14:45;;;;;;;0.63;0.63;;;7.70;99.90;;;;;;5066425;28;20037;-77
2023/05/29 04:17:10;;;;;;;0.00;0.00;;;7.80;99.90;;;;;;5068546;28;20048;-76
2023/05/29 04:19:36;;;;;;;1.98;1.20;;;8.10;99.90;;;;;;5068495;28;20044;-77
2023/05/29 04:22:02;;;;;;;0.00;0.00;;;7.90;99.90;;;;;;5068336;28;20076;-78
2023/05/29 04:24:27;;;;;;;3.35;0.85;;;8.10;99.90;;;;;;5068502;28;20079;-77
2023/05/29 04:26:53;;;;;;;0.45;0.45;;;8.20;99.90;;;;;;5068630;28;20040;-76
2023/05/29 04:29:19;;;;;;;0.00;0.00;;;8.30;99.90;;;;;;5068664;28;20076;-77
2023/05/29 04:31:45;;;;;;;0.15;0.15;;;8.40;99.60;;;;;;5068610;28;20056;-77
2023/05/29 04:34:10;;;;;;;0.00;0.00;;;8.50;1.00;;;;;;5067790;28;20051;-77
2023/05/29 04:36:39;;;;;;;0.00;0.00;;;8.70;1.00;;;;;;5067815;28;20045;-77
2023/05/29 04:39:06;;;;;;;0.00;0.00;;;8.80;99.90;;;;;;5068287;28;20049;-77
2023/05/29 04:41:32;;;;;;;0.90;0.63;;;8.90;1.00;;;;;;5068053;28;20079;-78
2023/05/29 04:43:58;;;;;;;0.00;0.00;;;9.00;99.90;;;;;;5067485;28;20122;-77
2023/05/29 04:46:24;;;;;;;0.17;0.10;;;9.10;99.90;;;;;;5067462;28;20059;-77
2023/05/29 04:48:53;;;;;;;0.35;0.35;;;9.30;99.90;;;;;;5067561;28;20056;-77
2023/05/29 04:51:23;;;;;;;2.65;0.55;;;9.50;99.90;;;;;;5067563;28;20041;-77
2023/05/29 04:53:51;;;;;;;0.22;0.22;;;9.70;99.90;;;;;;5066709;28;20040;-77
2023/05/29 04:56:18;;;;;;;5.45;0.88;;;9.70;99.90;;;;;;5066259;28;20457;-77
2023/05/29 04:58:44;;;;;;;0.60;0.60;;;9.60;99.90;;;;;;5067589;28;20049;-77
2023/05/29 05:01:14;;;;;;;1.85;0.90;;;9.70;1.00;;;;;;5067666;28;20533;-77
2023/05/29 05:03:43;;;;;;;2.53;1.08;;;9.70;90.50;;;;;;5066942;28;20064;-77
2023/05/29 05:06:10;;;;;;;1.75;1.15;;;9.80;1.00;;;;;;5067255;28;20055;-77
2023/05/29 05:08:36;;;;;;;0.00;0.00;;;9.80;61.70;;;;;;5065504;28;20498;-77
2023/05/29 05:11:01;;;;;;;0.75;0.40;;;9.90;99.90;;;;;;5067463;28;20072;-77
2023/05/29 05:13:27;;;;;;;0.13;0.13;;;9.90;10.90;;;;;;5067626;28;20523;-77
2023/05/29 05:15:54;;;;;;;0.25;0.20;;;10.00;1.00;;;;;;5067042;28;20580;-77
2023/05/29 05:18:20;;;;;;;0.00;0.00;;;10.10;1.00;;;;;;5067204;28;20055;-77
2023/05/29 05:20:46;;;;;;;3.28;0.57;;;10.20;99.90;;;;;;5067209;28;20044;-77
2023/05/29 05:23:11;;;;;;;0.00;0.00;;;10.30;1.00;;;;;;5066531;28;20044;-78
2023/05/29 05:25:38;;;;;;;0.32;0.22;;;10.50;99.90;;;;;;5066741;28;20085;-76
2023/05/29 05:28:04;;;;;;;0.95;0.13;;;10.50;99.90;;;;;;5066686;28;20036;-77
2023/05/29 05:30:30;;;;;;;0.00;0.00;;;10.60;98.00;;;;;;5067380;28;20124;-77
2023/05/29 05:32:56;;;;;;;6.60;0.63;;;10.70;1.00;;;;;;5066997;28;20079;-77
2023/05/29 05:35:22;;;;;;;1.23;1.13;;;10.80;99.90;;;;;;5066728;28;20044;-78
2023/05/29 05:37:48;;;;;;;0.73;0.52;;;10.90;99.90;;;;;;5066460;28;20059;-77
2023/05/29 05:40:13;;;;;;;1.88;0.63;;;11.10;99.90;;;;;;5065786;28;20127;-78
2023/05/29 05:42:39;;;;;;;5.85;2.15;;;11.20;99.90;;;;;;5066053;28;20044;-77
2023/05/29 05:45:06;;;;;;;0.00;0.00;;;11.40;99.90;;;;;;5066020;28;20060;-77
2023/05/29 05:47:32;;;;;;;0.28;0.10;;;11.60;99.90;;;;;;5065729;28;20495;-77
2023/05/29 05:49:58;;;;;;;0.00;0.00;;;12.00;65.80;;;;;;5066503;28;20040;-76
2023/05/29 05:52:24;;;;;;;1.27;0.10;;;12.30;1.00;;;;;;5066754;28;20041;-77
2023/05/29 05:54:50;;;;;;;4.38;1.33;;;12.70;1.00;;;;;;5065759;28;20127;-76
2023/05/29 05:57:16;;;;;;;1.85;1.30;;;12.90;99.90;;;;;;5066122;28;20583;-77
2023/05/29 05:59:41;;;;;;;0.00;0.00;;;13.10;1.00;;;;;;5065831;28;20052;-78
2023/05/29 06:02:07;;;;;;;1.38;0.73;;;13.50;99.90;;;;;;5065397;28;20123;-77
2023/05/29 06:04:32;;;;;;;0.05;0.05;;;13.70;99.90;;;;;;5065868;28;20076;-77
2023/05/29 06:06:58;;;;;;;0.52;0.47;;;13.90;99.90;;;;;;5065714;28;20045;-77
2023/05/29 06:09:24;;;;;;;1.02;0.90;;;14.10;99.90;;;;;;5066015;28;20100;-77
2023/05/29 06:12:03;;;;;;;0.25;0.22;;;14.40;99.90;;;;;;5141047;27;1301187;-75
2023/05/29 06:14:28;;;;;;;0.47;0.40;;;14.10;99.90;;;;;;5165023;27;20054;-75
2023/05/29 06:16:54;;;;;;;3.42;0.52;;;13.90;99.90;;;;;;5165201;27;20047;-77
2023/05/29 06:19:20;;;;;;;0.73;0.65;;;14.00;99.90;;;;;;5162793;27;20469;-76
2023/05/29 06:21:46;;;;;;;0.10;0.10;;;14.00;99.90;;;;;;5161661;27;20043;-76
2023/05/29 06:24:12;;;;;;;0.03;0.03;;;14.10;99.90;;;;;;5161241;27;20051;-76
2023/05/29 06:26:38;;;;;;;0.13;0.13;;;14.20;99.90;;;;;;5161293;27;20091;-76
2023/05/29 06:29:06;;;;;;;1.00;0.93;;;14.20;99.90;;;;;;5161550;27;20117;-76
2023/05/29 06:31:32;;;;;;;1.48;0.80;;;14.60;99.90;;;;;;5161427;27;20046;-76
2023/05/29 06:33:58;;;;;;;3.72;0.77;;;15.00;99.90;;;;;;5142983;27;20091;-76
2023/05/29 06:36:24;;;;;;;0.35;0.10;;;14.70;99.90;;;;;;5161505;27;20508;-76
2023/05/29 06:38:50;;;;;;;2.28;0.95;;;14.60;99.90;;;;;;5161331;27;20098;-76
2023/05/29 06:41:16;;;;;;;4.35;1.17;;;14.40;99.90;;;;;;5161022;27;20050;-76
2023/05/29 06:43:42;;;;;;;0.75;0.17;;;14.50;99.90;;;;;;5161069;27;20042;-76
2023/05/29 06:46:08;;;;;;;0.43;0.22;;;14.90;99.90;;;;;;5161234;27;20481;-76
2023/05/29 06:48:34;;;;;;;0.68;0.68;;;15.10;99.90;;;;;;5161175;27;20693;-76
2023/05/29 06:51:01;;;;;;;0.10;0.10;;;14.90;99.90;;;;;;5161060;27;20073;-76
2023/05/29 06:53:26;;;;;;;0.63;0.47;;;15.00;99.90;;;;;;5161057;27;20045;-76
2023/05/29 06:55:53;;;;;;;1.92;1.00;;;15.20;99.90;;;;;;5149412;27;20042;-76
2023/05/29 06:58:18;;;;;;;0.35;0.32;;;15.40;99.90;;;;;;5121396;27;20400;-76
2023/05/29 07:00:44;;;;;;;0.50;0.50;;;15.60;99.90;;;;;;5139911;27;20050;-76
2023/05/29 07:03:10;;;;;;;0.05;0.05;;;15.50;99.90;;;;;;5140218;27;20528;-76
2023/05/29 07:05:36;;;;;;;11.57;1.27;;;15.60;99.90;;;;;;5140095;27;20043;-76
2023/05/29 07:08:02;;;;;;;0.90;0.55;;;15.40;99.90;;;;;;5140535;27;20054;-76
2023/05/29 07:10:27;;;;;;;0.10;0.10;;;15.50;99.90;;;;;;5139746;27;20185;-76
2023/05/29 07:12:53;;;;;;;0.47;0.38;;;15.90;99.90;;;;;;5139853;27;20493;-76
2023/05/29 07:15:18;;;;;;;0.40;0.20;;;16.20;99.90;;;;;;5139880;27;20035;-76
2023/05/29 07:17:44;;;;;;;0.77;0.57;;;16.20;99.90;;;;;;5139917;27;20046;-76
2023/05/29 07:20:10;;;;;;;0.30;0.30;;;15.70;99.90;;;;;;5140074;27;20168;-76
2023/05/29 07:22:36;;;;;;;0.08;0.08;;;15.40;99.90;;;;;;5130693;27;20050;-76
2023/05/29 07:25:03;;;;;;;0.30;0.20;;;15.40;99.90;;;;;;5125634;27;20421;-76
2023/05/29 07:27:29;;;;;;;0.50;0.43;;;15.50;99.90;;;;;;5125957;27;20047;-76
2023/05/29 07:29:54;;;;;;;0.45;0.45;;;15.70;99.90;;;;;;5125780;27;20140;-76
2023/05/29 07:32:21;;;;;;;0.13;0.10;;;15.80;99.90;;;;;;5125857;27;20050;-76
2023/05/29 07:34:49;;;;;;;0.85;0.60;;;15.60;99.90;;;;;;5125811;27;20047;-76
2023/05/29 07:37:15;;;;;;;0.50;0.50;;;15.70;99.90;;;;;;5125521;27;20059;-76
2023/05/29 07:39:42;;;;;;;1.90;1.17;;;15.90;99.90;;;;;;5125358;27;20051;-76
2023/05/29 07:42:07;;;;;;;0.52;0.50;;;15.90;99.90;;;;;;5125654;27;20122;-76
2023/05/29 07:44:33;;;;;;;3.75;1.35;;;15.60;99.90;;;;;;5125627;27;20179;-76
2023/05/29 07:46:59;;;;;;;0.05;0.03;;;15.70;99.90;;;;;;5125177;27;20505;-76
2023/05/29 07:49:24;;;;;;;0.17;0.17;;;16.30;99.90;;;;;;5125576;27;20035;-76
2023/05/29 07:51:50;;;;;;;0.17;0.17;;;16.30;99.90;;;;;;5125110;27;20043;-76
2023/05/29 07:54:18;;;;;;;0.60;0.47;;;16.10;99.90;;;;;;5125551;27;20386;-76
2023/05/29 07:56:44;;;;;;;0.15;0.15;;;16.20;99.90;;;;;;5125949;27;20321;-76
2023/05/29 07:59:10;;;;;;;5.47;0.55;;;16.40;99.90;;;;;;5126034;27;20050;-76
2023/05/29 08:01:36;;;;;;;0.20;0.20;;;16.40;99.90;;;;;;5126394;27;20146;-76
2023/05/29 08:04:02;;;;;;;1.63;1.27;;;16.70;99.90;;;;;;5126093;27;20043;-76
2023/05/29 08:06:28;;;;;;;0.55;0.35;;;17.60;99.90;;;;;;5125722;27;20496;-75
2023/05/29 08:08:53;;;;;;;0.15;0.13;;;18.10;99.90;;;;;;5125557;27;20039;-76
2023/05/29 08:11:19;;;;;;;0.10;0.10;;;18.90;99.90;;;;;;5124554;27;20063;-76
2023/05/29 08:13:45;;;;;;;0.30;0.28;;;19.30;99.90;;;;;;5125456;27;20043;-76
2023/05/29 08:16:14;;;;;;;11.27;0.80;;;19.10;99.90;;;;;;5125377;27;20035;-76
2023/05/29 08:18:40;;;;;;;0.60;0.60;;;19.00;99.90;;;;;;5124944;27;20098;-76
2023/05/29 08:21:06;;;;;;;0.52;0.43;;;19.40;99.90;;;;;;5125074;27;20420;-76
2023/05/29 08:23:32;;;;;;;1.05;0.82;;;17.80;99.90;;;;;;5124555;27;20075;-76
2023/05/29 08:25:57;;;;;;;1.27;0.75;;;17.30;99.90;;;;;;5124315;27;20074;-76
2023/05/29 08:28:23;;;;;;;4.55;1.35;;;17.50;99.90;;;;;;5124535;27;20045;-76
2023/05/29 08:30:49;;;;;;;1.02;0.70;;;17.90;99.90;;;;;;5124266;27;20050;-76
2023/05/29 08:33:15;;;;;;;0.52;0.45;;;18.10;99.90;;;;;;5123875;27;20489;-76
2023/05/29 08:35:41;;;;;;;0.43;0.40;;;18.50;99.90;;;;;;5123929;27;20089;-76
2023/05/29 08:38:06;;;;;;;1.25;0.40;;;18.50;99.90;;;;;;5124088;27;20043;-76
2023/05/29 08:40:32;;;;;;;0.50;0.50;;;18.90;99.90;;;;;;5124153;27;20046;-76
2023/05/29 08:43:02;;;;;;;1.48;1.35;;;18.70;99.90;;;;;;5124257;27;20039;-76
2023/05/29 08:45:29;;;;;;;0.30;0.30;;;18.40;99.90;;;;;;5124451;27;20394;-76
2023/05/29 08:47:57;;;;;;;5.38;1.08;;;18.50;99.90;;;;;;5105715;27;20111;-76
2023/05/29 08:50:23;;;;;;;0.40;0.32;;;18.40;99.90;;;;;;5124281;27;20047;-76
2023/05/29 08:52:50;;;;;;;0.75;0.57;;;18.80;99.90;;;;;;5123938;27;20066;-76
2023/05/29 08:55:16;;;;;;;11.82;0.65;;;18.50;99.90;;;;;;5123957;27;20501;-76
2023/05/29 08:57:43;;;;;;;5.28;0.15;;;18.30;99.90;;;;;;5123974;27;20112;-76
2023/05/29 09:00:15;;;;;;;0.20;0.13;;;18.10;99.90;;;;;;5124151;27;20065;-76
2023/05/29 09:02:44;;;;;;;0.10;0.10;;;17.90;99.90;;;;;;5124056;27;20043;-75
2023/05/29 09:05:10;;;;;;;0.25;0.25;;;17.60;99.90;;;;;;5123634;27;20039;-76
2023/05/29 09:07:39;;;;;;;0.20;0.20;;;17.40;99.90;;;;;;5123927;27;20051;-76
2023/05/29 09:10:15;;;;;;;0.20;0.20;;;17.50;99.90;;;;;;5123489;27;20390;-76
2023/05/29 09:12:41;;;;;;;0.98;0.63;;;17.80;99.90;;;;;;5123481;27;20558;-76
2023/05/29 09:15:21;;;;;;;0.95;0.50;;;18.10;99.90;;;;;;5123544;27;20039;-75
2023/05/29 09:17:55;;;;;;;1.02;0.65;;;18.20;99.90;;;;;;5123416;27;20601;-76
2023/05/29 09:20:24;;;;;;;0.73;0.60;;;18.10;99.90;;;;;;5123681;27;20066;-76
2023/05/29 09:22:57;;;;;;;0.75;0.43;;;18.40;99.90;;;;;;5123497;27;20054;-75
2023/05/29 09:25:27;;;;;;;0.73;0.32;;;18.60;99.90;;;;;;5123183;27;20043;-76
2023/05/29 09:28:00;;;;;;;0.32;0.32;;;18.70;99.90;;;;;;5123863;27;20107;-76
2023/05/29 09:30:33;;;;;;;0.73;0.73;;;18.50;99.90;;;;;;5123162;27;20054;-76
2023/05/29 09:33:00;;;;;;;0.82;0.70;;;18.20;99.90;;;;;;5123510;27;20079;-76
2023/05/29 09:35:47;;;;;;;0.95;0.35;;;18.30;99.90;;;;;;5123624;27;20043;-76
2023/05/29 09:38:18;;;;;;;0.57;0.57;;;19.00;99.90;;;;;;5122337;27;20415;-76
2023/05/29 09:40:47;;;;;;;0.65;0.65;;;19.20;99.90;;;;;;5123161;27;20127;-76
2023/05/29 09:43:17;;;;;;;3.67;1.08;;;19.50;99.90;;;;;;5123338;27;20450;-76
2023/05/29 09:45:50;;;;;;;2.63;1.30;;;19.00;99.90;;;;;;5122899;27;20431;-76
2023/05/29 09:48:22;;;;;;;0.57;0.28;;;18.90;99.90;;;;;;5123273;27;20047;-76
2023/05/29 09:50:48;;;;;;;0.75;0.70;;;19.30;99.90;;;;;;5123262;27;20066;-76
2023/05/29 09:53:25;;;;;;;0.98;0.25;;;18.90;99.90;;;;;;5122911;27;20057;-76
2023/05/29 09:55:52;;;;;;;1.77;0.43;;;19.30;99.90;;;;;;5123052;27;20047;-76
2023/05/29 09:58:19;;;;;;;1.08;0.98;;;19.40;99.90;;;;;;5122975;27;20047;-76
2023/05/29 10:00:45;;;;;;;0.25;0.20;;;19.20;99.90;;;;;;5122869;27;20092;-76
2023/05/29 10:03:14;;;;;;;1.42;1.02;;;19.10;99.90;;;;;;5104678;27;20043;-76
2023/05/29 10:05:41;;;;;;;0.43;0.35;;;18.70;99.90;;;;;;5122776;27;21215;-74
2023/05/29 10:08:13;;;;;;;2.08;0.98;;;18.70;99.90;;;;;;5124207;27;20096;-76
2023/05/29 10:10:43;;;;;;;0.43;0.43;;;18.90;99.90;;;;;;5124213;28;20059;-75
2023/05/29 10:13:12;;;;;;;1.60;0.70;;;19.40;99.90;;;;;;5124206;28;20110;-76
2023/05/29 10:15:39;;;;;;;1.33;0.80;;;19.10;99.90;;;;;;5124289;28;20062;-76
2023/05/29 10:18:12;;;;;;;18.10;1.35;;;18.30;99.90;;;;;;5124379;28;20060;-76
2023/05/29 10:20:38;;;;;;;2.13;1.60;;;18.20;99.90;;;;;;5123526;28;20095;-76
2023/05/29 10:23:06;;;;;;;0.47;0.47;;;18.70;99.90;;;;;;5122912;28;20050;-76
2023/05/29 10:25:34;;;;;;;0.43;0.32;;;19.10;99.90;;;;;;5123213;28;20047;-76
2023/05/29 10:28:01;;;;;;;3.28;1.83;;;19.00;99.90;;;;;;5122182;28;20039;-76
2023/05/29 10:30:46;;;;;;;0.75;0.75;;;19.10;99.90;;;;;;5120631;28;20039;-76
2023/05/29 10:33:41;;;;;;;0.20;0.20;;;18.80;99.90;;;;;;5121074;28;20047;-76
2023/05/29 10:36:13;;;;;;;1.45;0.85;;;18.80;99.90;;;;;;5121058;28;20130;-76
2023/05/29 10:38:45;;;;;;;2.40;1.40;;;19.00;99.90;;;;;;5120632;28;20501;-76
2023/05/29 10:41:29;;;;;;;5.97;2.85;;;19.10;99.90;;;;;;5121192;28;20047;-75
2023/05/29 10:44:00;;;;;;;2.63;0.75;;;18.90;99.90;;;;;;5121815;28;20051;-76
2023/05/29 10:46:44;;;;;;;1.85;0.98;;;19.50;99.90;;;;;;5122520;28;20130;-76
2023/05/29 10:49:20;;;;;;;11.80;2.72;;;19.60;99.90;;;;;;5122315;28;20051;-76
2023/05/29 10:51:46;;;;;;;;;;;19.50;99.90;;;;;;5123051;28;20399;-76
2023/05/29 10:54:13;;;;;;;0.40;0.40;;;19.20;99.90;;;;;;5122679;28;20044;-76
2023/05/29 10:56:41;;;;;;;6.78;1.50;;;18.90;99.90;;;;;;5122441;27;20043;-76
2023/05/29 10:59:08;;;;;;;0.75;0.65;;;19.20;99.90;;;;;;5125876;27;20078;-75
2023/05/29 11:01:33;;;;;;;0.03;0.03;;;19.00;99.90;;;;;;5126070;27;20379;-76
2023/05/29 11:04:16;;;;;;;3.05;1.20;;;19.10;99.90;;;;;;5126102;27;20053;-76
2023/05/29 11:06:42;;;;;;;0.20;0.20;;;18.80;99.90;;;;;;5126242;27;20495;-76
2023/05/29 11:09:26;;;;;;;0.30;0.20;;;19.20;99.90;;;;;;5126297;27;20075;-76
2023/05/29 11:15:09;;;;;;;0.10;0.10;;;19.60;99.90;;;;;;5126375;27;20073;-76
2023/05/29 11:17:38;;;;;;;0.43;0.35;;;19.70;99.90;;;;;;5126433;27;20262;-76
2023/05/29 11:20:09;;;;;;;2.17;0.43;;;19.80;99.90;;;;;;5126821;27;20050;-76
2023/05/29 11:22:53;;;;;;;10.15;1.77;;;19.60;99.90;;;;;;5126192;27;20050;-76
2023/05/29 11:25:20;;;;;;;1.85;1.02;;;19.40;99.90;;;;;;5126019;27;20047;-76
2023/05/29 11:27:46;;;;;;;2.83;1.00;;;19.40;99.90;;;;;;5125910;27;20043;-76
2023/05/29 11:30:12;;;;;;;0.85;0.60;;;19.50;99.90;;;;;;5125675;27;20039;-76
2023/05/29 11:32:40;;;;;;;11.98;2.55;;;19.60;99.90;;;;;;5125782;27;20046;-76
2023/05/29 11:35:09;;;;;;;2.92;1.58;;;19.60;99.90;;;;;;5125994;27;20462;-76
2023/05/29 11:37:37;;;;;;;0.82;0.52;;;19.40;99.90;;;;;;5125947;27;20099;-76
2023/05/29 11:40:08;;;;;;;0.47;0.47;;;19.10;99.90;;;;;;5125583;27;20458;-76
2023/05/29 11:42:33;;;;;;;3.40;1.27;;;19.40;99.90;;;;;;5125680;27;20058;-76
2023/05/29 11:45:20;;;;;;;1.45;0.98;;;19.20;99.90;;;;;;5125255;27;20039;-76
2023/05/29 11:47:56;;;;;;;;;;;19.10;99.90;;;;;;5125830;27;20046;-76
2023/05/29 11:50:32;;;;;;;0.00;0.00;;;19.30;99.90;;;;;;5125414;27;19927;-76
2023/05/29 11:52:59;;;;;;;0.28;0.20;;;19.90;99.90;;;;;;5125446;27;20043;-76
2023/05/29 11:55:26;;;;;;;7.97;1.48;;;20.30;99.90;;;;;;5125006;27;20047;-76
2023/05/29 11:57:58;;;;;;;2.75;0.75;;;21.50;99.90;;;;;;5125728;27;20043;-76
2023/05/29 12:00:24;;;;;;;2.45;0.73;;;21.90;99.90;;;;;;5125010;27;20045;-76
2023/05/29 12:02:51;;;;;;;0.38;0.20;;;21.70;99.90;;;;;;5125285;27;20043;-76
2023/05/29 12:05:21;;;;;;;1.35;0.70;;;21.00;99.90;;;;;;5125223;27;20050;-76
2023/05/29 12:07:57;;;;;;;0.52;0.45;;;20.90;99.90;;;;;;5125095;27;20051;-76
2023/05/29 12:10:24;;;;;;;0.47;0.40;;;21.20;99.90;;;;;;5124768;27;20428;-76
2023/05/29 12:12:58;;;;;;;3.40;0.95;;;21.00;99.90;;;;;;5124583;27;20114;-76
2023/05/29 12:15:24;;;;;;;2.10;1.00;;;20.90;99.90;;;;;;5125224;27;20054;-76
2023/05/29 12:17:51;;;;;;;0.20;0.20;;;21.30;99.90;;;;;;5124832;27;20074;-76
2023/05/29 12:20:18;;;;;;;0.35;0.13;;;20.90;99.90;;;;;;5125199;27;20047;-76
2023/05/29 12:22:45;;;;;;;2.20;0.70;;;21.10;99.90;;;;;;5125096;27;20039;-76
2023/05/29 12:25:17;;;;;;;0.22;0.22;;;21.30;99.90;;;;;;5124459;27;20501;-76
2023/05/29 12:27:48;;;;;;;0.10;0.10;;;21.80;99.90;;;;;;5124615;27;20047;-76
2023/05/29 12:30:24;;;;;;;0.52;0.52;;;21.50;99.90;;;;;;5124484;27;20046;-76
2023/05/29 12:32:52;;;;;;;0.85;0.60;;;21.10;99.90;;;;;;5124639;27;20130;-76
2023/05/29 12:35:22;;;;;;;0.80;0.73;;;21.70;99.90;;;;;;5124305;27;20568;-76
2023/05/29 12:37:56;;;;;;;4.25;0.85;;;22.30;99.90;;;;;;5124230;27;20561;-76
2023/05/29 12:40:25;;;;;;;0.75;0.63;;;22.00;99.90;;;;;;5124533;27;20393;-76
2023/05/29 12:42:55;;;;;;;0.30;0.30;;;21.30;99.90;;;;;;5124046;27;20493;-76
2023/05/29 12:45:26;;;;;;;3.20;1.90;;;21.20;99.90;;;;;;5124098;27;20107;-76
2023/05/29 12:47:53;;;;;;;0.35;0.30;;;21.60;99.90;;;;;;5124343;27;20930;-76
2023/05/29 12:50:30;;;;;;;1.10;0.90;;;22.10;99.90;;;;;;5123970;27;20085;-76
2023/05/29 12:53:06;;;;;;;0.45;0.38;;;21.10;99.90;;;;;;5124572;27;20427;-76
2023/05/29 12:55:41;;;;;;;0.85;0.60;;;21.00;99.90;;;;;;5124153;27;20038;-76
2023/05/29 12:58:15;;;;;;;1.45;1.27;;;21.00;99.90;;;;;;5124315;27;21103;-76